Time;durP1;ratioP1;P1;durP2;ratioP2;P2;SDS_P1;SDS_P2;PMS_P1;PMS_P2;Temp;Humidity;BMP_temperature;BMP_pressure;BME280_temperature;BME280_humidity;BME280_pressure;Samples;Min_cycle;Max_cycle;Signal;HPM_P1;HPM_P2
2023/03/26 00:01:04;;;;;;;1.02;0.60;;;23.60;48.50;;;;;;4986132;28;20117;-63
2023/03/26 00:03:32;;;;;;;1.42;0.70;;;23.70;48.50;;;;;;4986902;28;20038;-63
2023/03/26 00:06:15;;;;;;;1.42;0.80;;;23.70;48.40;;;;;;4983460;28;20018;-63
2023/03/26 00:08:43;;;;;;;1.13;0.70;;;23.70;48.40;;;;;;4982251;28;20035;-63
2023/03/26 00:11:11;;;;;;;1.13;0.70;;;23.70;48.30;;;;;;4984102;28;20034;-63
2023/03/26 00:13:37;;;;;;;1.20;0.73;;;23.70;48.30;;;;;;4981096;28;20498;-63
2023/03/26 00:16:03;;;;;;;1.27;0.68;;;23.70;48.30;;;;;;4983350;28;20101;-64
2023/03/26 00:18:30;;;;;;;1.63;0.80;;;23.70;48.30;;;;;;4984352;28;20326;-63
2023/03/26 00:21:01;;;;;;;1.48;0.70;;;23.70;48.20;;;;;;4985600;28;20018;-64
2023/03/26 00:23:28;;;;;;;1.42;0.80;;;23.70;48.20;;;;;;4983067;28;20034;-64
2023/03/26 00:25:54;;;;;;;1.38;0.73;;;23.80;48.10;;;;;;4999389;28;20114;-64
2023/03/26 00:28:23;;;;;;;1.40;0.85;;;23.80;48.10;;;;;;4982127;28;20105;-64
2023/03/26 00:30:56;;;;;;;1.23;0.70;;;23.80;48.10;;;;;;4985012;28;20042;-63
2023/03/26 00:33:22;;;;;;;1.58;0.80;;;23.80;48.10;;;;;;4981812;28;20030;-63
2023/03/26 00:35:52;;;;;;;1.20;0.68;;;23.80;48.10;;;;;;4984729;28;20038;-61
2023/03/26 00:38:19;;;;;;;1.35;0.70;;;23.80;48.00;;;;;;4983469;28;20434;-61
2023/03/26 00:40:46;;;;;;;1.30;0.70;;;23.80;48.00;;;;;;4982121;28;20538;-62
2023/03/26 00:43:19;;;;;;;0.93;0.50;;;23.90;48.00;;;;;;4983414;28;20117;-62
2023/03/26 00:45:49;;;;;;;0.90;0.60;;;23.80;47.90;;;;;;4982698;28;20114;-62
2023/03/26 00:48:16;;;;;;;1.00;0.70;;;23.90;47.90;;;;;;4983440;28;20036;-62
2023/03/26 00:50:44;;;;;;;1.35;0.80;;;23.90;47.80;;;;;;4982138;28;20038;-62
2023/03/26 00:53:12;;;;;;;0.60;0.60;;;23.90;47.80;;;;;;4982784;28;20136;-62
2023/03/26 00:55:47;;;;;;;1.20;0.70;;;23.90;47.80;;;;;;4982291;28;20506;-62
2023/03/26 00:58:14;;;;;;;1.38;0.70;;;23.90;47.80;;;;;;4980122;28;20482;-62
2023/03/26 01:01:05;;;;;;;0.77;0.55;;;23.90;47.70;;;;;;4979998;28;20030;-62
2023/03/26 01:03:33;;;;;;;1.50;0.70;;;23.90;47.70;;;;;;4980676;28;20471;-62
2023/03/26 01:06:06;;;;;;;1.03;0.70;;;23.90;47.60;;;;;;4984213;28;20038;-62
2023/03/26 01:08:32;;;;;;;1.10;0.70;;;23.90;47.60;;;;;;4982610;28;20076;-62
2023/03/26 01:11:03;;;;;;;1.17;0.73;;;23.90;47.60;;;;;;4983459;28;20030;-63
2023/03/26 01:13:35;;;;;;;0.82;0.50;;;23.90;47.60;;;;;;4982293;28;20077;-63
2023/03/26 01:16:04;;;;;;;1.30;0.70;;;23.90;47.70;;;;;;4982134;28;20028;-62
2023/03/26 01:18:32;;;;;;;1.25;0.60;;;23.90;47.70;;;;;;4982334;28;20482;-62
2023/03/26 01:21:04;;;;;;;1.25;0.60;;;23.90;47.60;;;;;;4983392;28;20081;-63
2023/03/26 01:23:58;;;;;;;0.68;0.50;;;23.90;47.60;;;;;;4982007;28;20031;-63
2023/03/26 01:26:42;;;;;;;0.63;0.50;;;23.90;47.60;;;;;;4986654;28;20398;-63
2023/03/26 01:29:19;;;;;;;1.40;0.75;;;23.90;47.60;;;;;;4980563;28;20441;-63
2023/03/26 01:32:12;;;;;;;1.02;0.70;;;23.90;47.60;;;;;;4982347;28;20058;-62
2023/03/26 01:34:45;;;;;;;0.90;0.60;;;23.90;47.60;;;;;;4983438;28;20504;-63
2023/03/26 01:37:31;;;;;;;0.68;0.60;;;23.90;47.70;;;;;;4980090;28;20026;-63
2023/03/26 01:40:05;;;;;;;1.08;0.60;;;23.80;47.60;;;;;;4980402;28;20111;-63
2023/03/26 01:42:50;;;;;;;0.95;0.60;;;23.80;47.60;;;;;;4983573;28;20030;-63
2023/03/26 01:45:21;;;;;;;1.10;0.60;;;23.80;47.60;;;;;;4985234;28;20027;-63
2023/03/26 01:47:47;;;;;;;1.00;0.50;;;23.70;47.60;;;;;;4987088;28;20038;-63
2023/03/26 01:50:13;;;;;;;1.10;0.70;;;23.80;47.70;;;;;;4984735;28;20030;-63
2023/03/26 01:52:38;;;;;;;1.02;0.75;;;23.70;47.70;;;;;;4985568;28;20031;-63
2023/03/26 01:55:10;;;;;;;0.60;0.52;;;23.70;47.60;;;;;;4986517;28;20038;-63
2023/03/26 01:57:48;;;;;;;1.52;0.70;;;23.70;47.70;;;;;;4989017;28;20037;-62
2023/03/26 02:00:31;;;;;;;2.58;0.60;;;23.70;47.70;;;;;;4985066;28;20046;-63
2023/03/26 02:03:16;;;;;;;0.85;0.60;;;23.60;47.70;;;;;;4987432;28;20570;-63
2023/03/26 02:05:57;;;;;;;0.98;0.70;;;23.60;47.70;;;;;;4985471;28;20076;-63
2023/03/26 02:08:34;;;;;;;0.57;0.47;;;23.60;47.70;;;;;;4986810;28;20041;-64
2023/03/26 02:11:09;;;;;;;0.73;0.60;;;23.60;47.70;;;;;;4986063;28;20117;-63
2023/03/26 02:13:35;;;;;;;0.85;0.60;;;23.60;47.80;;;;;;4984233;28;20027;-63
2023/03/26 02:16:04;;;;;;;1.13;0.70;;;23.50;47.70;;;;;;4985189;28;20063;-64
2023/03/26 02:18:35;;;;;;;1.15;0.60;;;23.50;47.70;;;;;;4986279;28;20114;-63
2023/03/26 02:21:04;;;;;;;1.00;0.50;;;23.50;47.80;;;;;;4982695;28;20483;-63
2023/03/26 02:23:34;;;;;;;0.95;0.70;;;23.50;47.80;;;;;;5000306;28;20034;-63
2023/03/26 02:26:01;;;;;;;0.85;0.50;;;23.50;47.80;;;;;;4986618;28;20045;-63
2023/03/26 02:28:27;;;;;;;0.50;0.50;;;23.40;47.80;;;;;;4984633;28;20118;-63
2023/03/26 02:30:56;;;;;;;0.80;0.60;;;23.40;47.80;;;;;;4984685;28;20126;-63
2023/03/26 02:33:22;;;;;;;0.73;0.60;;;23.40;47.90;;;;;;4983286;28;20312;-63
2023/03/26 02:35:48;;;;;;;0.95;0.70;;;23.40;47.80;;;;;;4985190;28;20095;-64
2023/03/26 02:38:13;;;;;;;1.13;0.65;;;23.40;47.90;;;;;;4985926;28;20026;-63
2023/03/26 02:40:40;;;;;;;0.80;0.50;;;23.40;47.90;;;;;;4986493;28;20030;-63
2023/03/26 02:43:07;;;;;;;1.40;0.70;;;23.30;47.90;;;;;;4982857;28;20031;-63
2023/03/26 02:45:32;;;;;;;0.68;0.60;;;23.30;47.90;;;;;;4986633;28;20035;-63
2023/03/26 02:47:59;;;;;;;0.80;0.43;;;23.30;48.00;;;;;;4984839;28;20421;-63
2023/03/26 02:50:25;;;;;;;0.77;0.57;;;23.30;48.00;;;;;;4991885;28;20061;-63
2023/03/26 02:52:51;;;;;;;0.77;0.60;;;23.30;48.00;;;;;;4986792;28;20034;-63
2023/03/26 02:55:16;;;;;;;0.77;0.50;;;23.20;48.00;;;;;;4984853;28;20035;-63
2023/03/26 02:57:42;;;;;;;0.73;0.50;;;23.20;47.90;;;;;;4985205;28;20026;-63
2023/03/26 03:00:11;;;;;;;1.08;0.70;;;23.20;48.00;;;;;;4985525;28;20023;-63
2023/03/26 03:02:37;;;;;;;1.35;0.60;;;23.20;48.00;;;;;;4985381;28;20106;-63
2023/03/26 03:05:04;;;;;;;0.43;0.43;;;23.20;48.10;;;;;;4982835;28;20034;-62
2023/03/26 03:07:30;;;;;;;0.80;0.50;;;23.20;48.10;;;;;;4983845;28;20376;-63
2023/03/26 03:10:01;;;;;;;1.35;0.60;;;23.10;48.00;;;;;;4984370;28;20044;-63
2023/03/26 03:12:27;;;;;;;0.93;0.50;;;23.20;48.10;;;;;;4985198;28;20475;-63
2023/03/26 03:14:52;;;;;;;0.75;0.60;;;23.10;48.10;;;;;;4984668;28;20026;-63
2023/03/26 03:17:19;;;;;;;1.33;0.50;;;23.10;48.10;;;;;;4984929;28;20023;-63
2023/03/26 03:19:45;;;;;;;0.55;0.47;;;23.10;48.20;;;;;;4983828;28;20019;-62
2023/03/26 03:22:11;;;;;;;0.90;0.60;;;23.10;48.20;;;;;;4984952;28;20044;-62
2023/03/26 03:24:37;;;;;;;0.50;0.50;;;23.00;48.20;;;;;;4987841;28;20077;-62
2023/03/26 03:27:03;;;;;;;1.02;0.60;;;23.00;48.20;;;;;;4983010;28;20481;-62
2023/03/26 03:29:29;;;;;;;0.40;0.40;;;23.00;48.20;;;;;;4984851;28;20035;-62
2023/03/26 03:31:54;;;;;;;1.08;0.50;;;23.00;48.20;;;;;;4990042;28;20360;-62
2023/03/26 03:34:20;;;;;;;1.42;0.55;;;23.00;48.30;;;;;;4986028;28;20026;-63
2023/03/26 03:36:47;;;;;;;0.68;0.50;;;22.90;48.20;;;;;;4985359;28;20023;-62
2023/03/26 03:39:14;;;;;;;0.80;0.55;;;23.00;48.30;;;;;;4983713;28;20034;-63
2023/03/26 03:41:40;;;;;;;0.68;0.50;;;23.00;48.30;;;;;;4983608;28;20474;-62
2023/03/26 03:44:05;;;;;;;1.02;0.70;;;22.90;48.30;;;;;;4983216;28;20073;-62
2023/03/26 03:46:31;;;;;;;0.80;0.45;;;22.90;48.30;;;;;;4986697;28;20034;-63
2023/03/26 03:48:56;;;;;;;0.90;0.50;;;22.90;48.30;;;;;;4985793;28;20490;-63
2023/03/26 03:51:23;;;;;;;0.75;0.43;;;22.90;48.30;;;;;;4982406;28;20026;-63
2023/03/26 03:53:49;;;;;;;0.50;0.50;;;22.90;48.40;;;;;;4983999;28;20033;-62
2023/03/26 03:56:17;;;;;;;0.68;0.47;;;22.80;48.30;;;;;;4981355;28;20035;-63
2023/03/26 03:58:45;;;;;;;1.13;0.60;;;22.80;48.30;;;;;;4982886;28;20075;-62
2023/03/26 04:01:12;;;;;;;0.50;0.50;;;22.80;48.40;;;;;;4981852;28;20038;-62
2023/03/26 04:03:38;;;;;;;0.68;0.50;;;22.80;48.40;;;;;;4982936;28;20034;-62
2023/03/26 04:06:07;;;;;;;0.73;0.45;;;22.80;48.40;;;;;;4980170;28;20053;-63
2023/03/26 04:08:33;;;;;;;0.33;0.33;;;22.80;48.40;;;;;;4983547;28;20022;-63
2023/03/26 04:10:59;;;;;;;1.00;0.47;;;22.70;48.30;;;;;;4983203;28;20333;-62
2023/03/26 04:13:24;;;;;;;0.68;0.43;;;22.70;48.40;;;;;;4982748;28;20105;-62
2023/03/26 04:15:50;;;;;;;0.68;0.50;;;22.70;48.40;;;;;;4983525;28;20172;-62
2023/03/26 04:18:16;;;;;;;1.05;0.57;;;22.70;48.40;;;;;;4985300;28;20115;-62
2023/03/26 04:20:46;;;;;;;0.45;0.43;;;22.70;48.50;;;;;;4981193;28;20432;-62
2023/03/26 04:23:16;;;;;;;0.50;0.45;;;22.70;48.50;;;;;;4980454;28;20035;-62
2023/03/26 04:25:52;;;;;;;0.82;0.50;;;22.70;48.50;;;;;;4984562;28;20054;-62
2023/03/26 04:28:46;;;;;;;0.98;0.60;;;22.70;48.50;;;;;;5072296;27;20386;-63
2023/03/26 04:31:15;;;;;;;0.73;0.60;;;22.60;48.50;;;;;;5059720;28;20024;-63
2023/03/26 04:33:46;;;;;;;0.70;0.50;;;22.60;48.50;;;;;;5054496;28;20041;-63
2023/03/26 04:36:14;;;;;;;0.98;0.60;;;22.60;48.50;;;;;;5057502;28;20061;-63
2023/03/26 04:38:47;;;;;;;1.08;0.50;;;22.60;48.50;;;;;;5054514;28;20029;-63
2023/03/26 04:41:14;;;;;;;0.52;0.50;;;22.60;48.60;;;;;;5056500;28;20029;-63
2023/03/26 04:43:45;;;;;;;0.93;0.70;;;22.60;48.60;;;;;;5054894;28;20507;-63
2023/03/26 04:46:12;;;;;;;0.75;0.50;;;22.60;48.60;;;;;;5089278;28;20047;-63
2023/03/26 04:48:37;;;;;;;0.60;0.50;;;22.60;48.60;;;;;;5055948;28;20021;-63
2023/03/26 04:51:08;;;;;;;0.93;0.57;;;22.60;49.20;;;;;;5059256;28;20032;-63
2023/03/26 04:53:34;;;;;;;0.68;0.50;;;22.60;48.60;;;;;;5055734;28;20036;-63
2023/03/26 04:56:22;;;;;;;0.80;0.60;;;22.60;48.60;;;;;;5056516;28;20572;-63
2023/03/26 04:58:49;;;;;;;1.00;0.50;;;22.50;48.60;;;;;;5054361;28;20082;-63
2023/03/26 05:01:15;;;;;;;0.68;0.50;;;22.50;48.60;;;;;;5055841;28;20029;-63
2023/03/26 05:03:41;;;;;;;0.60;0.50;;;22.50;48.60;;;;;;5055628;28;20021;-63
2023/03/26 05:06:10;;;;;;;0.68;0.50;;;22.50;48.70;;;;;;5056934;28;20453;-63
2023/03/26 05:08:36;;;;;;;0.82;0.60;;;22.50;48.70;;;;;;5054646;28;20033;-63
2023/03/26 05:11:01;;;;;;;0.93;0.50;;;22.50;48.70;;;;;;5055044;28;20029;-63
2023/03/26 05:13:27;;;;;;;0.60;0.50;;;22.50;48.70;;;;;;5054953;28;20532;-63
2023/03/26 05:15:54;;;;;;;0.77;0.50;;;22.50;48.70;;;;;;5059299;28;20021;-63
2023/03/26 05:18:20;;;;;;;0.82;0.60;;;22.50;48.70;;;;;;5056924;28;20613;-63
2023/03/26 05:20:45;;;;;;;0.60;0.45;;;22.40;48.70;;;;;;5055601;28;20029;-63
2023/03/26 05:23:11;;;;;;;1.00;0.57;;;22.50;48.70;;;;;;5056054;28;20025;-63
2023/03/26 05:25:37;;;;;;;0.68;0.50;;;22.50;48.70;;;;;;5056522;28;20392;-63
2023/03/26 05:28:02;;;;;;;0.60;0.50;;;22.40;48.70;;;;;;5057028;28;20059;-63
2023/03/26 05:30:28;;;;;;;0.50;0.50;;;22.40;48.70;;;;;;5057942;28;20047;-63
2023/03/26 05:32:53;;;;;;;0.57;0.57;;;22.40;48.70;;;;;;5058603;28;20032;-63
2023/03/26 05:35:19;;;;;;;0.40;0.40;;;22.40;48.80;;;;;;5052165;28;20075;-63
2023/03/26 05:37:46;;;;;;;0.50;0.50;;;22.40;48.80;;;;;;5051434;28;20053;-63
2023/03/26 05:40:13;;;;;;;0.40;0.40;;;22.40;48.80;;;;;;5041276;28;20078;-63
2023/03/26 05:42:40;;;;;;;0.65;0.40;;;22.30;48.70;;;;;;5040920;28;20197;-64
2023/03/26 05:45:08;;;;;;;1.40;0.50;;;22.30;48.80;;;;;;5043523;28;20031;-64
2023/03/26 05:47:34;;;;;;;0.50;0.50;;;22.30;48.80;;;;;;5042067;28;20029;-63
2023/03/26 05:49:59;;;;;;;0.75;0.52;;;22.40;48.90;;;;;;5038968;28;20029;-64
2023/03/26 05:52:25;;;;;;;0.90;0.50;;;22.30;48.90;;;;;;5042293;28;20032;-63
2023/03/26 05:54:51;;;;;;;0.80;0.50;;;22.30;48.90;;;;;;5038642;28;20025;-63
2023/03/26 05:57:17;;;;;;;0.80;0.40;;;22.30;48.90;;;;;;5042336;28;20037;-63
2023/03/26 05:59:43;;;;;;;0.52;0.40;;;22.30;48.90;;;;;;5044320;28;20053;-63
2023/03/26 06:02:09;;;;;;;1.25;0.55;;;22.30;48.90;;;;;;5042161;28;20098;-63
2023/03/26 06:04:39;;;;;;;0.80;0.40;;;22.30;48.90;;;;;;5041064;28;20568;-63
2023/03/26 06:07:08;;;;;;;1.00;0.60;;;22.30;48.90;;;;;;5040641;28;20041;-64
2023/03/26 06:09:38;;;;;;;0.40;0.40;;;22.30;48.90;;;;;;5039684;28;20025;-64
2023/03/26 06:12:08;;;;;;;0.75;0.47;;;22.20;48.90;;;;;;5041596;28;20090;-64
2023/03/26 06:14:34;;;;;;;0.40;0.40;;;22.20;48.80;;;;;;5039745;28;20017;-64
2023/03/26 06:17:00;;;;;;;0.82;0.60;;;22.20;48.90;;;;;;5038210;28;20052;-64
2023/03/26 06:19:26;;;;;;;0.60;0.40;;;22.20;48.80;;;;;;5042176;28;20515;-64
2023/03/26 06:21:52;;;;;;;0.45;0.40;;;22.20;48.80;;;;;;5044529;28;20041;-64
2023/03/26 06:24:18;;;;;;;1.05;0.57;;;22.20;48.90;;;;;;5038795;28;20061;-64
2023/03/26 06:26:45;;;;;;;0.75;0.50;;;22.20;48.80;;;;;;5042719;28;20029;-64
2023/03/26 06:29:12;;;;;;;0.70;0.55;;;22.20;48.90;;;;;;5041202;28;20021;-64
2023/03/26 06:31:39;;;;;;;0.50;0.40;;;22.20;48.90;;;;;;5041956;28;20567;-64
2023/03/26 06:34:04;;;;;;;0.75;0.50;;;22.20;49.00;;;;;;5038797;28;20769;-64
2023/03/26 06:36:30;;;;;;;1.95;0.50;;;22.20;49.00;;;;;;5039551;28;20033;-64
2023/03/26 06:38:56;;;;;;;0.45;0.40;;;22.20;49.00;;;;;;5039995;28;20022;-64
2023/03/26 06:41:21;;;;;;;0.50;0.50;;;22.20;49.00;;;;;;5040451;28;20430;-63
2023/03/26 06:43:47;;;;;;;0.90;0.50;;;22.20;49.00;;;;;;5039351;28;20060;-64
2023/03/26 06:46:12;;;;;;;0.63;0.50;;;22.20;49.00;;;;;;5040916;28;20029;-64
2023/03/26 06:48:40;;;;;;;0.50;0.50;;;22.20;49.00;;;;;;5042406;28;20025;-63
2023/03/26 06:51:06;;;;;;;0.70;0.50;;;22.10;49.00;;;;;;5041094;28;20082;-63
2023/03/26 06:53:32;;;;;;;0.40;0.40;;;22.10;49.00;;;;;;5040538;28;20817;-64
2023/03/26 06:55:58;;;;;;;0.50;0.47;;;22.20;49.10;;;;;;5039489;28;20151;-65
2023/03/26 06:58:23;;;;;;;0.68;0.50;;;22.10;49.10;;;;;;5040787;28;20144;-64
2023/03/26 07:00:53;;;;;;;0.95;0.40;;;22.10;49.10;;;;;;5039312;28;20334;-64
2023/03/26 07:03:18;;;;;;;0.65;0.50;;;22.10;49.20;;;;;;5044587;28;20063;-63
2023/03/26 07:05:44;;;;;;;0.70;0.47;;;22.10;49.10;;;;;;5042870;28;20037;-64
2023/03/26 07:08:09;;;;;;;0.73;0.50;;;22.10;49.10;;;;;;5043414;28;20044;-64
2023/03/26 07:10:35;;;;;;;0.80;0.50;;;22.10;49.10;;;;;;5036951;28;20029;-65
2023/03/26 07:13:01;;;;;;;0.60;0.50;;;22.10;49.20;;;;;;5037586;28;20477;-65
2023/03/26 07:15:27;;;;;;;0.68;0.50;;;22.10;49.70;;;;;;5042161;28;20052;-65
2023/03/26 07:17:53;;;;;;;0.88;0.55;;;22.10;49.20;;;;;;5038875;28;20096;-65
2023/03/26 07:20:19;;;;;;;1.17;0.52;;;22.10;49.20;;;;;;5039450;28;20033;-65
2023/03/26 07:22:45;;;;;;;0.73;0.60;;;22.10;49.20;;;;;;5040315;28;20018;-65
2023/03/26 07:25:12;;;;;;;0.38;0.38;;;22.10;49.20;;;;;;5038548;28;20378;-65
2023/03/26 07:27:46;;;;;;;0.55;0.40;;;22.10;49.20;;;;;;5039813;28;20082;-65
2023/03/26 07:30:36;;;;;;;0.73;0.52;;;22.10;49.20;;;;;;5044319;28;20131;-65
2023/03/26 07:33:20;;;;;;;1.27;0.50;;;22.10;49.20;;;;;;5039391;28;20021;-65
2023/03/26 07:35:54;;;;;;;0.65;0.50;;;22.10;49.20;;;;;;5040674;28;20138;-65
2023/03/26 07:38:38;;;;;;;0.80;0.45;;;22.10;49.20;;;;;;5037723;28;20021;-65
2023/03/26 07:41:12;;;;;;;0.73;0.55;;;22.00;49.10;;;;;;5038176;28;20558;-65
2023/03/26 07:43:47;;;;;;;1.25;0.68;;;22.00;49.20;;;;;;5040221;28;20032;-65
2023/03/26 07:46:14;;;;;;;0.73;0.45;;;22.00;49.10;;;;;;5038794;28;20485;-64
2023/03/26 07:48:50;;;;;;;0.70;0.57;;;22.00;49.20;;;;;;5036813;28;20052;-65
2023/03/26 07:51:17;;;;;;;1.08;0.57;;;22.00;49.20;;;;;;5038282;28;20480;-65
2023/03/26 07:53:43;;;;;;;1.00;0.60;;;22.00;49.20;;;;;;5041070;28;20013;-65
2023/03/26 07:56:19;;;;;;;0.60;0.43;;;22.00;49.20;;;;;;5037466;28;20464;-65
2023/03/26 07:59:16;;;;;;;1.00;0.70;;;22.00;49.20;;;;;;5045260;28;20021;-64
2023/03/26 08:01:54;;;;;;;0.80;0.57;;;22.00;49.20;;;;;;4984593;28;20049;-64
2023/03/26 08:04:20;;;;;;;0.73;0.50;;;22.00;49.20;;;;;;5041632;28;20084;-65
2023/03/26 08:06:57;;;;;;;1.35;0.80;;;22.00;49.20;;;;;;5037354;28;20025;-64
2023/03/26 08:09:51;;;;;;;1.25;0.60;;;22.00;49.20;;;;;;5038121;28;20036;-65
2023/03/26 08:12:32;;;;;;;0.85;0.50;;;22.00;49.20;;;;;;5038517;28;20109;-65
2023/03/26 08:15:11;;;;;;;0.80;0.60;;;22.00;49.30;;;;;;5039663;28;20028;-64
2023/03/26 08:18:19;;;;;;;0.60;0.50;;;22.00;49.20;;;;;;5038326;28;20143;-64
2023/03/26 08:20:48;;;;;;;1.00;0.63;;;22.00;49.20;;;;;;5015238;28;20041;-65
2023/03/26 08:23:14;;;;;;;;;;;21.90;49.20;;;;;;5038867;28;20037;-64
2023/03/26 08:25:55;;;;;;;0.65;0.52;;;21.90;49.20;;;;;;5039003;28;19975;-64
2023/03/26 08:28:31;;;;;;;0.73;0.60;;;21.90;49.20;;;;;;5039521;28;20497;-65
2023/03/26 08:30:57;;;;;;;0.60;0.50;;;21.90;49.20;;;;;;5037420;28;20018;-65
2023/03/26 08:33:26;;;;;;;0.65;0.60;;;21.90;49.20;;;;;;5039507;28;20110;-65
2023/03/26 08:35:51;;;;;;;1.45;0.60;;;21.90;49.20;;;;;;5039567;28;20028;-64
2023/03/26 08:38:19;;;;;;;0.52;0.40;;;21.90;49.20;;;;;;5040774;28;20041;-64
2023/03/26 08:40:57;;;;;;;1.35;0.70;;;21.90;49.20;;;;;;5037315;28;20514;-64
2023/03/26 08:44:01;;;;;;;0.90;0.60;;;21.90;49.30;;;;;;5053147;28;20056;-64
2023/03/26 08:46:47;;;;;;;0.98;0.68;;;21.80;49.20;;;;;;5037087;28;20033;-65
2023/03/26 08:49:49;;;;;;;0.57;0.57;;;21.90;49.30;;;;;;5039744;28;20053;-64
2023/03/26 08:52:33;;;;;;;1.40;0.70;;;21.80;49.20;;;;;;5041266;28;20554;-64
2023/03/26 08:55:08;;;;;;;1.05;0.60;;;21.90;49.30;;;;;;5039741;28;20013;-64
2023/03/26 08:58:21;;;;;;;1.13;0.63;;;21.90;49.30;;;;;;5038290;28;20114;-64
2023/03/26 09:01:38;;;;;;;0.85;0.60;;;21.90;49.30;;;;;;5016134;28;20401;-64
2023/03/26 09:04:21;;;;;;;0.60;0.52;;;21.90;49.30;;;;;;5020552;28;20038;-64
2023/03/26 09:06:59;;;;;;;0.80;0.70;;;21.80;49.30;;;;;;5039434;28;20026;-65
2023/03/26 09:09:55;;;;;;;0.90;0.60;;;21.90;49.30;;;;;;5053222;28;20104;-64
2023/03/26 09:12:56;;;;;;;1.15;0.52;;;21.80;49.30;;;;;;5036242;28;20053;-65
2023/03/26 09:15:31;;;;;;;0.70;0.60;;;21.80;49.20;;;;;;5043360;28;20028;-65
2023/03/26 09:18:26;;;;;;;0.93;0.60;;;21.80;49.20;;;;;;5043483;28;20493;-64
2023/03/26 09:21:26;;;;;;;0.90;0.60;;;21.80;49.20;;;;;;5043242;28;20473;-64
2023/03/26 09:23:54;;;;;;;1.25;0.60;;;21.80;49.20;;;;;;5074872;28;20044;-64
2023/03/26 09:26:26;;;;;;;1.38;0.70;;;21.80;49.30;;;;;;5041107;28;20044;-64
2023/03/26 09:29:32;;;;;;;0.95;0.70;;;21.80;49.30;;;;;;5044058;28;20021;-65
2023/03/26 09:32:41;;;;;;;1.23;0.70;;;21.80;49.30;;;;;;5040527;28;20021;-64
2023/03/26 09:35:10;;;;;;;;;;;21.80;49.30;;;;;;5042209;28;20038;-64
2023/03/26 09:37:49;;;;;;;0.97;0.80;;;21.80;49.30;;;;;;5043754;28;20394;-64
2023/03/26 09:40:21;;;;;;;;;;;21.80;49.30;;;;;;5044948;28;20033;-65
2023/03/26 09:43:23;;;;;;;1.05;0.90;;;21.80;49.30;;;;;;5042068;28;19905;-65
2023/03/26 09:46:03;;;;;;;1.98;0.90;;;21.80;49.30;;;;;;5041071;28;20120;-64
2023/03/26 09:48:40;;;;;;;1.05;0.70;;;21.80;49.30;;;;;;5041759;28;20029;-65
2023/03/26 09:51:25;;;;;;;1.27;0.80;;;21.80;49.30;;;;;;5040078;28;20168;-64
2023/03/26 09:53:59;;;;;;;1.15;0.70;;;21.70;49.30;;;;;;5044092;28;20026;-65
2023/03/26 09:56:56;;;;;;;1.20;0.70;;;21.70;49.30;;;;;;5040095;28;20021;-64
2023/03/26 09:59:42;;;;;;;1.77;0.82;;;21.70;49.30;;;;;;5040912;28;20437;-64
2023/03/26 10:02:29;;;;;;;1.27;0.75;;;21.70;49.30;;;;;;5042531;28;20048;-64
2023/03/26 10:05:20;;;;;;;1.75;0.80;;;21.70;49.30;;;;;;5042768;28;20022;-64
2023/03/26 10:07:54;;;;;;;1.48;0.80;;;21.70;49.30;;;;;;5036630;28;20033;-65
2023/03/26 10:10:46;;;;;;;1.60;0.93;;;21.70;49.20;;;;;;5040128;28;20465;-65
2023/03/26 10:13:31;;;;;;;1.40;0.90;;;21.70;49.20;;;;;;5039128;28;20029;-64
2023/03/26 10:16:22;;;;;;;1.25;0.82;;;21.70;49.20;;;;;;5041339;28;20021;-64
2023/03/26 10:19:06;;;;;;;1.55;0.90;;;21.70;49.20;;;;;;5038982;28;20863;-65
2023/03/26 10:22:16;;;;;;;1.48;0.85;;;21.70;49.20;;;;;;5042636;28;20025;-65
2023/03/26 10:25:00;;;;;;;1.30;0.85;;;21.70;49.20;;;;;;5000296;28;20022;-65
2023/03/26 10:28:08;;;;;;;1.67;0.90;;;21.70;49.10;;;;;;5036069;28;20612;-65
2023/03/26 10:30:50;;;;;;;1.70;1.08;;;21.70;49.10;;;;;;5016086;28;20044;-65
2023/03/26 10:33:25;;;;;;;1.77;1.00;;;21.70;49.10;;;;;;5039697;28;20021;-65
2023/03/26 10:36:12;;;;;;;2.05;1.00;;;21.70;49.10;;;;;;5043833;28;20029;-65
2023/03/26 10:39:10;;;;;;;1.95;1.00;;;21.70;49.10;;;;;;5041055;28;20032;-65
2023/03/26 10:42:23;;;;;;;2.00;1.00;;;21.70;49.10;;;;;;5040239;28;20481;-65
2023/03/26 10:45:22;;;;;;;1.70;1.00;;;21.70;49.10;;;;;;5035239;28;20974;-65
2023/03/26 10:48:00;;;;;;;;;;;21.70;49.10;;;;;;5036615;28;20029;-65
2023/03/26 10:50:25;;;;;;;1.50;0.90;;;21.60;49.10;;;;;;5040038;28;19920;-66
2023/03/26 10:53:02;;;;;;;1.70;1.10;;;21.60;49.10;;;;;;5041334;28;20025;-65
2023/03/26 10:55:37;;;;;;;1.40;0.90;;;21.60;49.10;;;;;;5037636;28;20108;-65
2023/03/26 10:58:22;;;;;;;1.63;0.90;;;21.60;49.10;;;;;;5041631;28;20541;-65
2023/03/26 11:00:59;;;;;;;1.67;0.90;;;21.60;49.10;;;;;;5040445;28;20401;-65
2023/03/26 11:03:53;;;;;;;2.40;1.05;;;21.60;49.10;;;;;;5040714;28;20432;-65
2023/03/26 11:06:30;;;;;;;1.33;0.73;;;21.60;49.20;;;;;;5041902;28;20021;-65
2023/03/26 11:09:06;;;;;;;1.73;0.88;;;21.60;49.10;;;;;;5041402;28;20095;-65
2023/03/26 11:12:01;;;;;;;1.40;0.90;;;21.60;49.20;;;;;;5053952;28;20060;-65
2023/03/26 11:15:05;;;;;;;1.55;0.90;;;21.60;49.20;;;;;;5036993;28;20036;-64
2023/03/26 11:17:47;;;;;;;2.10;1.00;;;21.60;49.20;;;;;;5039712;28;20029;-65
2023/03/26 11:20:32;;;;;;;1.35;0.98;;;21.60;49.10;;;;;;5042836;28;20119;-64
2023/03/26 11:23:16;;;;;;;1.73;1.00;;;21.60;49.10;;;;;;5037455;28;20040;-65
2023/03/26 11:26:00;;;;;;;1.33;0.90;;;21.60;49.10;;;;;;5036893;28;20025;-65
2023/03/26 11:28:46;;;;;;;1.85;1.00;;;21.60;49.10;;;;;;5040463;28;20025;-64
2023/03/26 11:31:30;;;;;;;2.60;1.00;;;21.60;49.10;;;;;;5036164;28;20017;-64
2023/03/26 11:34:04;;;;;;;1.73;0.82;;;21.60;49.10;;;;;;5037248;28;20068;-65
2023/03/26 11:36:35;;;;;;;1.50;0.90;;;21.60;49.10;;;;;;5038910;28;20029;-64
2023/03/26 11:39:05;;;;;;;1.55;0.90;;;21.60;49.10;;;;;;5038847;28;20559;-64
2023/03/26 11:41:33;;;;;;;1.58;1.02;;;21.60;49.10;;;;;;5036130;28;20021;-65
2023/03/26 11:44:08;;;;;;;1.30;0.90;;;21.60;49.20;;;;;;5040093;28;20059;-66
2023/03/26 11:46:38;;;;;;;0.85;0.70;;;21.60;49.20;;;;;;5039607;28;20029;-66
2023/03/26 11:49:10;;;;;;;1.70;0.85;;;21.50;49.10;;;;;;5040971;28;20036;-66
2023/03/26 11:51:37;;;;;;;1.55;0.90;;;21.60;49.20;;;;;;5039422;28;20481;-66
2023/03/26 11:54:05;;;;;;;1.55;0.82;;;21.50;49.20;;;;;;5035333;28;20422;-66
2023/03/26 11:56:34;;;;;;;2.25;0.90;;;21.60;49.20;;;;;;5041233;28;20063;-66
2023/03/26 11:59:14;;;;;;;1.38;0.80;;;21.50;49.20;;;;;;5039229;28;20361;-66
2023/03/26 12:01:49;;;;;;;1.63;1.00;;;21.50;49.20;;;;;;5038471;28;20020;-66
2023/03/26 12:04:32;;;;;;;1.27;0.90;;;21.50;49.30;;;;;;5040358;28;20463;-67
2023/03/26 12:07:19;;;;;;;1.35;0.90;;;21.50;49.20;;;;;;5040486;28;20037;-67
2023/03/26 12:10:20;;;;;;;1.27;0.90;;;21.50;49.20;;;;;;5040977;28;20099;-66
2023/03/26 12:12:46;;;;;;;1.63;1.00;;;21.50;49.20;;;;;;5026300;28;20041;-67
2023/03/26 12:15:18;;;;;;;1.60;0.90;;;21.50;49.30;;;;;;5039752;28;20545;-66
2023/03/26 12:17:47;;;;;;;1.92;0.85;;;21.50;49.30;;;;;;5037068;28;20029;-66
2023/03/26 12:20:25;;;;;;;2.10;1.03;;;21.50;49.30;;;;;;5041411;28;20481;-67
2023/03/26 12:23:01;;;;;;;1.48;0.80;;;21.50;49.30;;;;;;5039099;28;20052;-66
2023/03/26 12:25:33;;;;;;;1.48;0.90;;;21.50;49.40;;;;;;5038612;28;20524;-66
2023/03/26 12:28:04;;;;;;;1.27;0.80;;;21.50;49.40;;;;;;5039470;28;20117;-66
2023/03/26 12:30:36;;;;;;;1.02;0.77;;;21.50;49.50;;;;;;5036771;28;20029;-66
2023/03/26 12:33:25;;;;;;;1.30;0.77;;;21.50;49.50;;;;;;5038710;28;20027;-66
2023/03/26 12:35:51;;;;;;;2.03;0.90;;;21.50;49.50;;;;;;5039034;28;20025;-66
2023/03/26 12:38:20;;;;;;;1.90;1.00;;;21.50;49.50;;;;;;5042542;28;20486;-66
2023/03/26 12:40:47;;;;;;;1.40;0.90;;;21.50;49.50;;;;;;5040999;28;20094;-66
2023/03/26 12:43:34;;;;;;;1.77;0.98;;;21.50;49.50;;;;;;5037455;28;20461;-66
2023/03/26 12:46:00;;;;;;;2.55;1.20;;;21.50;49.60;;;;;;5035559;28;20025;-66
2023/03/26 12:48:26;;;;;;;2.35;1.00;;;21.50;49.60;;;;;;5040634;28;20395;-66
2023/03/26 12:51:19;;;;;;;1.65;1.00;;;21.50;49.60;;;;;;5044598;28;20021;-65
2023/03/26 12:53:57;;;;;;;2.50;1.00;;;21.50;49.60;;;;;;5041218;28;20080;-66
2023/03/26 12:56:40;;;;;;;1.58;1.00;;;21.50;49.70;;;;;;5040072;28;20476;-66
2023/03/26 12:59:27;;;;;;;1.65;1.00;;;21.50;49.70;;;;;;5042757;28;20028;-66
2023/03/26 13:02:17;;;;;;;2.28;0.90;;;21.50;49.70;;;;;;5043521;28;20370;-65
2023/03/26 13:05:23;;;;;;;1.77;0.90;;;21.50;49.80;;;;;;5042834;28;20496;-65
2023/03/26 13:08:12;;;;;;;2.00;0.90;;;21.50;49.80;;;;;;5044782;28;20059;-65
2023/03/26 13:10:51;;;;;;;2.25;1.10;;;21.50;49.90;;;;;;5043195;28;20033;-65
2023/03/26 13:13:38;;;;;;;1.50;1.00;;;21.50;49.90;;;;;;5044426;28;20441;-65
2023/03/26 13:16:15;;;;;;;1.60;0.98;;;21.50;50.00;;;;;;5045680;28;20469;-65
2023/03/26 13:18:55;;;;;;;1.80;1.00;;;21.50;49.90;;;;;;5042045;28;20033;-65
2023/03/26 13:21:56;;;;;;;1.48;0.90;;;21.50;50.00;;;;;;5041648;28;20574;-65
2023/03/26 13:24:58;;;;;;;1.90;1.00;;;21.50;50.00;;;;;;5041538;28;20041;-65